createdAt,value
2022-12-14T00:00:42.462Z,6.27
2022-12-14T00:02:44.086Z,7.23
2022-12-14T00:04:45.623Z,7.03
2022-12-14T00:06:53.570Z,7.33
2022-12-14T00:08:58.285Z,6.80
2022-12-14T00:10:59.993Z,6.97
2022-12-14T00:13:05.509Z,7.10
2022-12-14T00:15:07.610Z,7.03
2022-12-14T00:17:09.688Z,7.40
2022-12-14T00:19:11.995Z,7.23
2022-12-14T00:21:14.443Z,7.13
2022-12-14T00:23:15.952Z,7.20
2022-12-14T00:25:17.496Z,7.70
2022-12-14T00:27:19.079Z,8.77
2022-12-14T00:29:20.795Z,9.00
2022-12-14T00:31:24.350Z,9.53
2022-12-14T00:33:26.274Z,8.47
2022-12-14T00:35:27.723Z,7.93
2022-12-14T00:37:29.269Z,7.93
2022-12-14T00:39:32.617Z,7.80
2022-12-14T00:41:35.562Z,6.83
2022-12-14T00:43:37.870Z,7.93
2022-12-14T00:45:39.539Z,7.17
2022-12-14T00:47:41.081Z,8.13
2022-12-14T00:49:42.948Z,7.37
2022-12-14T00:51:44.524Z,7.23
2022-12-14T00:53:46.563Z,8.20
2022-12-14T00:55:51.915Z,8.23
2022-12-14T00:57:53.535Z,7.73
2022-12-14T00:59:58.056Z,6.77
2022-12-14T01:02:02.786Z,6.70
2022-12-14T01:04:21.572Z,7.83
2022-12-14T01:06:23.323Z,7.60
2022-12-14T01:08:35.465Z,8.33
2022-12-14T01:10:40.023Z,8.57
2022-12-14T01:12:43.839Z,8.20
2022-12-14T01:14:46.433Z,8.40
2022-12-14T01:16:48.116Z,7.70
2022-12-14T01:18:49.756Z,7.07
2022-12-14T01:20:53.810Z,7.23
2022-12-14T01:23:02.051Z,6.90
2022-12-14T01:25:05.394Z,6.30
2022-12-14T01:27:06.903Z,6.27
2022-12-14T01:29:08.614Z,6.43
2022-12-14T01:31:15.485Z,6.00
2022-12-14T01:33:17.159Z,6.60
2022-12-14T01:35:18.807Z,6.67
2022-12-14T01:37:22.925Z,6.30
2022-12-14T01:39:24.540Z,6.33
2022-12-14T01:41:36.264Z,6.13
2022-12-14T01:43:56.024Z,6.30
2022-12-14T01:45:59.688Z,6.17
2022-12-14T01:48:03.683Z,6.50
2022-12-14T01:50:22.599Z,5.97
2022-12-14T01:52:49.607Z,6.33
2022-12-14T01:54:54.061Z,7.00
2022-12-14T01:56:56.596Z,6.10
2022-12-14T01:59:12.428Z,6.63
2022-12-14T02:01:15.513Z,6.47
2022-12-14T02:03:38.894Z,6.80
2022-12-14T02:05:48.389Z,6.77
2022-12-14T02:07:52.820Z,7.07
2022-12-14T02:09:58.120Z,6.80
2022-12-14T02:12:22.936Z,7.47
2022-12-14T02:14:24.760Z,6.77
2022-12-14T02:16:26.616Z,6.97
2022-12-14T02:18:47.557Z,7.30
2022-12-14T02:21:15.082Z,6.87
2022-12-14T02:23:56.786Z,7.53
2022-12-14T02:26:34.744Z,6.70
2022-12-14T02:29:13.735Z,6.90
2022-12-14T02:31:28.417Z,6.63
2022-12-14T02:33:46.182Z,7.10
2022-12-14T02:35:55.575Z,7.47
2022-12-14T02:37:57.192Z,6.60
2022-12-14T02:40:15.427Z,6.77
2022-12-14T02:42:29.265Z,6.40
2022-12-14T02:45:08.217Z,7.40
2022-12-14T02:47:16.091Z,6.97
2022-12-14T02:49:59.800Z,7.10
2022-12-14T02:52:08.436Z,7.17
2022-12-14T02:54:17.125Z,6.77
2022-12-14T02:56:28.359Z,7.07
2022-12-14T02:58:37.414Z,7.17
2022-12-14T03:00:39.283Z,6.50
2022-12-14T03:02:46.913Z,6.43
2022-12-14T03:04:49.901Z,7.13
2022-12-14T03:06:59.413Z,6.50
2022-12-14T03:09:11.406Z,6.37
2022-12-14T03:11:20.324Z,7.17
2022-12-14T03:13:33.881Z,7.03
2022-12-14T03:15:40.517Z,6.67
2022-12-14T03:17:49.097Z,6.30
2022-12-14T03:20:00.858Z,6.57
2022-12-14T03:22:08.552Z,6.80
2022-12-14T03:24:14.017Z,6.50
2022-12-14T03:27:01.660Z,6.23
2022-12-14T03:29:27.430Z,6.10
2022-12-14T03:31:37.889Z,6.67
2022-12-14T03:33:42.816Z,6.83
2022-12-14T03:36:17.086Z,7.07
2022-12-14T03:38:23.910Z,6.10
2022-12-14T03:40:55.439Z,6.47
2022-12-14T03:43:08.403Z,6.73
2022-12-14T03:45:24.606Z,6.50
2022-12-14T03:47:50.400Z,6.30
2022-12-14T03:50:16.471Z,6.50
2022-12-14T03:52:38.057Z,6.67
2022-12-14T03:55:21.951Z,6.50
2022-12-14T03:57:52.944Z,6.70
2022-12-14T04:00:04.003Z,6.87
2022-12-14T04:02:29.538Z,7.00
2022-12-14T04:04:48.565Z,7.27
2022-12-14T04:07:02.423Z,6.70
2022-12-14T04:09:10.040Z,7.17
2022-12-14T04:11:34.530Z,7.13
2022-12-14T04:14:21.070Z,7.80
2022-12-14T04:16:48.482Z,7.80
2022-12-14T04:19:01.824Z,7.10
2022-12-14T04:21:20.131Z,8.30
2022-12-14T04:23:48.226Z,7.43
2022-12-14T04:26:05.269Z,8.30
2022-12-14T04:28:34.714Z,8.43
2022-12-14T04:30:40.353Z,7.70
2022-12-14T04:32:56.118Z,8.77
2022-12-14T04:35:07.046Z,8.23
2022-12-14T04:37:11.666Z,7.60
2022-12-14T04:39:27.542Z,8.37
2022-12-14T04:41:34.066Z,7.83
2022-12-14T04:43:43.361Z,8.53
2022-12-14T04:45:53.975Z,7.73
2022-12-14T04:48:29.228Z,8.37
2022-12-14T04:50:35.890Z,7.50
2022-12-14T04:52:45.973Z,8.30
2022-12-14T04:55:02.844Z,10.93
2022-12-14T04:57:21.996Z,12.57
2022-12-14T04:59:24.756Z,14.50
2022-12-14T05:01:50.961Z,15.33
2022-12-14T05:04:08.136Z,15.03
2022-12-14T05:06:33.076Z,14.37
2022-12-14T05:08:59.296Z,13.07
2022-12-14T05:13:53.344Z,10.53
2022-12-14T05:15:57.533Z,9.50
2022-12-14T05:18:04.369Z,9.00
2022-12-14T05:20:13.547Z,8.80
2022-12-14T05:22:16.180Z,8.10
2022-12-14T05:24:17.787Z,8.20
2022-12-14T05:26:23.599Z,7.97
2022-12-14T05:28:25.376Z,8.33
2022-12-14T05:30:27.149Z,8.67
2022-12-14T05:32:32.622Z,8.33
2022-12-14T05:34:34.189Z,8.13
2022-12-14T05:36:36.157Z,8.23
2022-12-14T05:38:37.760Z,7.33
2022-12-14T05:40:40.069Z,7.90
2022-12-14T05:42:46.858Z,7.70
2022-12-14T05:44:51.390Z,8.03
2022-12-14T05:46:54.102Z,7.60
2022-12-14T05:48:58.080Z,8.50
2022-12-14T05:51:11.656Z,8.03
2022-12-14T05:53:13.848Z,7.40
2022-12-14T05:55:15.356Z,8.27
2022-12-14T05:57:22.791Z,7.30
2022-12-14T05:59:24.491Z,8.23
2022-12-14T06:01:26.219Z,7.73
2022-12-14T06:03:29.499Z,8.20
2022-12-14T06:05:31.573Z,7.40
2022-12-14T06:07:37.200Z,8.30
2022-12-14T06:09:41.447Z,7.90
2022-12-14T06:11:44.126Z,8.17
2022-12-14T06:13:46.347Z,8.10
2022-12-14T06:15:47.998Z,7.77
2022-12-14T06:17:50.407Z,7.60
2022-12-14T06:19:52.075Z,7.90
2022-12-14T06:21:53.713Z,8.93
2022-12-14T06:23:56.471Z,8.40
2022-12-14T06:25:58.178Z,8.63
2022-12-14T06:27:59.812Z,8.03
2022-12-14T06:30:01.446Z,9.07
2022-12-14T06:32:03.033Z,9.07
2022-12-14T06:34:04.851Z,8.37
2022-12-14T06:36:06.537Z,8.60
2022-12-14T06:38:08.911Z,8.97
2022-12-14T06:40:10.968Z,8.93
2022-12-14T06:42:16.609Z,9.77
2022-12-14T06:44:18.405Z,10.17
2022-12-14T06:46:22.685Z,10.70
2022-12-14T06:48:24.712Z,10.20
2022-12-14T06:50:27.665Z,10.27
2022-12-14T06:52:29.296Z,9.87
2022-12-14T06:54:30.990Z,9.23
2022-12-14T06:56:39.102Z,9.87
2022-12-14T06:58:41.533Z,9.40
2022-12-14T07:00:44.388Z,9.20
2022-12-14T07:02:47.446Z,8.80
2022-12-14T07:04:49.291Z,8.30
2022-12-14T07:06:50.945Z,8.90
2022-12-14T07:08:54.629Z,8.67
2022-12-14T07:11:01.935Z,8.40
2022-12-14T07:13:06.940Z,9.10
2022-12-14T07:15:08.932Z,9.23
2022-12-14T07:17:10.759Z,9.60
2022-12-14T07:19:12.340Z,10.20
2022-12-14T07:21:18.245Z,10.90
2022-12-14T07:23:23.457Z,12.13
2022-12-14T07:25:32.234Z,12.60
2022-12-14T07:27:34.092Z,12.77
2022-12-14T07:29:35.939Z,12.90
2022-12-14T07:31:39.786Z,12.53
2022-12-14T07:33:41.956Z,11.37
2022-12-14T07:35:43.563Z,10.20
2022-12-14T07:37:49.110Z,9.80
2022-12-14T07:39:51.052Z,9.87
2022-12-14T07:41:54.510Z,9.23
2022-12-14T07:43:59.718Z,9.10
2022-12-14T07:46:03.048Z,9.20
2022-12-14T07:48:07.146Z,9.10
2022-12-14T07:50:13.579Z,9.27
2022-12-14T07:52:15.163Z,9.10
2022-12-14T07:54:16.768Z,9.67
2022-12-14T07:56:21.705Z,9.47
2022-12-14T07:58:26.228Z,10.07
2022-12-14T08:00:27.970Z,10.53
2022-12-14T08:02:29.676Z,10.07
2022-12-14T08:04:31.492Z,11.30
2022-12-14T08:06:33.662Z,10.70
2022-12-14T08:08:38.589Z,10.50
2022-12-14T08:10:40.975Z,10.67
2022-12-14T08:12:42.632Z,11.20
2022-12-14T08:14:44.221Z,10.10
2022-12-14T08:16:47.122Z,10.53
2022-12-14T08:18:48.923Z,9.60
2022-12-14T08:20:53.394Z,9.83
2022-12-14T08:22:55.083Z,9.77
2022-12-14T08:24:56.665Z,9.77
2022-12-14T08:26:58.461Z,9.37
2022-12-14T08:29:00.330Z,9.30
2022-12-14T08:31:19.009Z,8.87
2022-12-14T08:33:21.509Z,9.77
2022-12-14T08:35:28.892Z,9.03
2022-12-14T08:37:32.629Z,9.00
2022-12-14T08:39:36.907Z,8.40
2022-12-14T08:41:38.374Z,8.47
2022-12-14T08:43:40.897Z,8.40
2022-12-14T08:45:42.482Z,8.30
2022-12-14T08:47:44.282Z,8.90
2022-12-14T08:49:45.954Z,7.70
2022-12-14T08:51:48.031Z,8.47
2022-12-14T08:53:49.710Z,8.30
2022-12-14T08:55:51.339Z,8.57
2022-12-14T08:57:53.090Z,8.50
2022-12-14T09:00:03.403Z,8.50
2022-12-14T09:02:05.220Z,8.13
2022-12-14T09:04:08.728Z,8.53
2022-12-14T09:06:16.019Z,8.23
2022-12-14T09:08:17.703Z,8.17
2022-12-14T09:10:19.393Z,8.90
2022-12-14T09:12:21.158Z,8.40
2022-12-14T09:14:22.781Z,7.93
2022-12-14T09:16:28.044Z,8.57
2022-12-14T09:18:32.733Z,7.73
2022-12-14T09:20:35.200Z,8.67
2022-12-14T09:22:36.869Z,8.13
2022-12-14T09:24:38.577Z,8.97
2022-12-14T09:26:40.207Z,7.90
2022-12-14T09:28:49.968Z,8.80
2022-12-14T09:31:00.074Z,8.80
2022-12-14T09:33:01.807Z,8.60
2022-12-14T09:35:03.620Z,8.80
2022-12-14T09:37:07.913Z,8.30
2022-12-14T09:39:09.488Z,9.03
2022-12-14T09:41:21.736Z,8.73
2022-12-14T09:43:43.367Z,8.50
2022-12-14T09:45:51.473Z,8.70
2022-12-14T09:48:13.548Z,9.07
2022-12-14T09:50:23.707Z,9.17
2022-12-14T09:52:48.757Z,8.50
2022-12-14T09:54:50.533Z,8.73
2022-12-14T09:56:54.824Z,9.07
2022-12-14T09:58:59.640Z,8.60
2022-12-14T10:01:35.910Z,8.30
2022-12-14T10:03:41.380Z,9.23
2022-12-14T10:06:01.833Z,8.37
2022-12-14T10:08:30.287Z,9.67
2022-12-14T10:10:55.643Z,8.90
2022-12-14T10:13:24.989Z,8.47
2022-12-14T10:16:03.650Z,9.50
2022-12-14T10:18:56.799Z,9.13
2022-12-14T10:21:02.440Z,8.73
2022-12-14T10:23:04.957Z,9.27
2022-12-14T10:25:14.304Z,8.73
2022-12-14T10:27:54.034Z,8.73
2022-12-14T10:30:15.831Z,9.37
2022-12-14T10:32:38.703Z,8.57
2022-12-14T10:34:48.827Z,9.40
2022-12-14T10:37:13.635Z,8.97
2022-12-14T10:39:43.780Z,8.73
2022-12-14T10:42:32.660Z,9.23
2022-12-14T10:45:31.662Z,10.00
2022-12-14T10:47:40.878Z,10.43
2022-12-14T10:50:09.358Z,9.47
2022-12-14T10:52:18.634Z,8.90
2022-12-14T10:54:33.366Z,8.50
2022-12-14T10:56:42.370Z,9.27
2022-12-14T10:58:46.852Z,9.63
2022-12-14T11:00:54.802Z,9.60
2022-12-14T11:02:58.075Z,9.23
2022-12-14T11:05:03.872Z,9.43
2022-12-14T11:07:11.880Z,9.23
2022-12-14T11:09:22.644Z,8.80
2022-12-14T11:11:26.321Z,9.20
2022-12-14T11:13:32.880Z,9.80
2022-12-14T11:15:39.755Z,8.97
2022-12-14T11:17:44.528Z,10.00
2022-12-14T11:20:04.233Z,8.83
2022-12-14T11:22:22.172Z,9.20
2022-12-14T11:24:28.522Z,9.60
2022-12-14T11:26:37.027Z,9.43
2022-12-14T11:28:57.974Z,9.40
2022-12-14T11:31:06.991Z,9.20
2022-12-14T11:33:16.970Z,9.47
2022-12-14T11:35:20.681Z,8.63
2022-12-14T11:37:28.902Z,9.30
2022-12-14T11:39:30.720Z,8.73
2022-12-14T11:41:35.782Z,9.37
2022-12-14T11:43:41.141Z,9.77
2022-12-14T11:45:52.648Z,9.47
2022-12-14T11:48:28.286Z,9.30
2022-12-14T11:50:30.360Z,9.73
2022-12-14T11:52:38.099Z,9.77
2022-12-14T11:55:09.976Z,10.47
2022-12-14T11:57:12.192Z,9.27
2022-12-14T11:59:17.031Z,9.47
2022-12-14T12:01:26.647Z,9.07
2022-12-14T12:03:37.730Z,9.67
2022-12-14T12:05:41.723Z,9.20
2022-12-14T12:07:59.511Z,9.47
2022-12-14T12:10:21.446Z,10.40
2022-12-14T12:12:23.979Z,9.43
2022-12-14T12:14:37.990Z,9.50
2022-12-14T12:16:43.617Z,9.17
2022-12-14T12:19:11.592Z,10.00
2022-12-14T12:21:32.879Z,9.77
2022-12-14T12:23:45.093Z,10.20
2022-12-14T12:25:49.896Z,10.73
2022-12-14T12:28:00.572Z,9.80
2022-12-14T12:30:15.218Z,11.30
2022-12-14T12:32:36.675Z,11.10
2022-12-14T12:34:47.676Z,12.20
2022-12-14T12:37:17.443Z,11.67
2022-12-14T12:39:15.884Z,11.10
2022-12-14T12:41:21.272Z,12.47
2022-12-14T12:43:42.157Z,11.43
2022-12-14T12:45:55.062Z,11.30
2022-12-14T12:48:18.703Z,10.70
2022-12-14T12:50:26.357Z,10.43
2022-12-14T12:52:33.987Z,9.67
2022-12-14T12:54:54.435Z,10.87
2022-12-14T12:57:03.046Z,10.07
2022-12-14T12:59:06.582Z,11.33
2022-12-14T13:01:21.206Z,11.43
2022-12-14T13:03:28.309Z,10.97
2022-12-14T13:05:48.102Z,10.93
2022-12-14T13:07:56.462Z,11.27
2022-12-14T13:10:28.526Z,11.67
2022-12-14T13:12:42.421Z,13.27
2022-12-14T13:14:52.145Z,13.20
2022-12-14T13:16:57.902Z,12.43
2022-12-14T13:19:40.441Z,13.00
2022-12-14T13:21:40.185Z,14.43
2022-12-14T13:23:45.688Z,14.67
2022-12-14T13:26:56.136Z,15.17
2022-12-14T13:29:18.028Z,13.70
2022-12-14T13:31:32.245Z,14.00
2022-12-14T13:34:04.520Z,14.07
2022-12-14T13:36:24.646Z,15.80
2022-12-14T13:38:42.238Z,15.27
2022-12-14T13:41:11.447Z,15.97
2022-12-14T13:43:28.349Z,15.47
2022-12-14T13:45:37.866Z,13.20
2022-12-14T13:47:43.716Z,12.37
2022-12-14T13:50:11.632Z,12.73
2022-12-14T13:52:27.589Z,11.80
2022-12-14T13:54:37.852Z,12.17
2022-12-14T13:56:40.160Z,11.67
2022-12-14T13:58:48.441Z,12.00
2022-12-14T14:00:57.649Z,12.23
2022-12-14T14:02:59.581Z,10.70
2022-12-14T14:05:18.569Z,12.03
2022-12-14T14:07:23.064Z,12.87
2022-12-14T14:09:36.816Z,13.50
2022-12-14T14:11:39.942Z,13.57
2022-12-14T14:13:42.971Z,13.20
2022-12-14T14:16:26.931Z,12.80
2022-12-14T14:18:23.671Z,12.20
2022-12-14T14:20:39.349Z,12.00
2022-12-14T14:23:12.768Z,12.30
2022-12-14T14:25:53.065Z,12.43
2022-12-14T14:27:54.899Z,12.33
2022-12-14T14:29:58.351Z,12.77
2022-12-14T14:32:02.515Z,12.23
2022-12-14T14:34:05.247Z,12.03
2022-12-14T14:36:30.333Z,13.30
2022-12-14T14:38:32.874Z,12.27
2022-12-14T14:41:15.435Z,11.47
2022-12-14T14:43:03.106Z,12.23
2022-12-14T14:45:08.115Z,12.93
2022-12-14T14:47:26.796Z,12.63
2022-12-14T14:49:38.515Z,12.47
2022-12-14T14:51:49.061Z,12.90
2022-12-14T14:54:37.650Z,13.73
2022-12-14T14:56:47.460Z,13.63
2022-12-14T14:58:49.661Z,13.90
2022-12-14T15:00:58.793Z,13.83
2022-12-14T15:03:00.852Z,13.60
2022-12-14T15:05:33.261Z,14.33
2022-12-14T15:07:31.033Z,13.70
2022-12-14T15:09:41.653Z,13.93
2022-12-14T15:11:54.559Z,12.70
2022-12-14T15:14:35.104Z,13.83
2022-12-14T15:16:45.683Z,14.80
2022-12-14T15:18:47.501Z,13.73
2022-12-14T15:21:02.044Z,14.07
2022-12-14T15:23:06.025Z,14.43
2022-12-14T15:25:14.227Z,14.53
2022-12-14T15:27:37.071Z,14.23
2022-12-14T15:29:38.967Z,15.40
2022-12-14T15:31:41.966Z,13.97
2022-12-14T15:33:44.691Z,15.43
2022-12-14T15:35:49.452Z,15.33
2022-12-14T15:37:59.550Z,14.63
2022-12-14T15:40:13.227Z,15.87
2022-12-14T15:42:17.139Z,15.20
2022-12-14T15:44:21.991Z,14.30
2022-12-14T15:46:30.016Z,14.23
2022-12-14T15:48:34.360Z,14.47
2022-12-14T15:50:41.364Z,14.63
2022-12-14T15:52:44.950Z,13.83
2022-12-14T15:54:48.851Z,14.40
2022-12-14T15:56:55.372Z,13.97
2022-12-14T15:59:00.012Z,14.03
2022-12-14T16:01:17.692Z,14.17
2022-12-14T16:03:30.700Z,15.33
2022-12-14T16:05:35.719Z,18.20
2022-12-14T16:07:42.293Z,19.57
2022-12-14T16:09:54.431Z,21.57
2022-12-14T16:12:02.863Z,20.43
2022-12-14T16:14:33.415Z,21.47
2022-12-14T16:16:35.481Z,18.00
2022-12-14T16:18:46.258Z,17.37
2022-12-14T16:20:58.823Z,17.13
2022-12-14T16:23:07.090Z,16.10
2022-12-14T16:25:08.749Z,15.73
2022-12-14T16:27:18.381Z,15.83
2022-12-14T16:29:28.826Z,16.50
2022-12-14T16:31:30.814Z,15.33
2022-12-14T16:33:37.765Z,16.00
2022-12-14T16:35:43.152Z,14.80
2022-12-14T16:37:45.344Z,15.53
2022-12-14T16:39:49.670Z,16.13
2022-12-14T16:41:51.388Z,15.07
2022-12-14T16:44:04.044Z,15.70
2022-12-14T16:46:05.721Z,15.00
2022-12-14T16:48:18.721Z,15.30
2022-12-14T16:50:54.975Z,15.23
2022-12-14T16:53:07.322Z,15.00
2022-12-14T16:55:13.155Z,15.90
2022-12-14T16:57:24.363Z,16.27
2022-12-14T16:59:30.200Z,18.07
2022-12-14T17:01:44.449Z,18.03
2022-12-14T17:03:53.957Z,18.03
2022-12-14T17:05:59.787Z,18.07
2022-12-14T17:08:01.899Z,18.50
2022-12-14T17:10:07.377Z,19.17
2022-12-14T17:12:15.580Z,18.27
2022-12-14T17:14:18.149Z,19.40
2022-12-14T17:16:23.580Z,18.70
2022-12-14T17:18:31.994Z,19.07
2022-12-14T17:20:39.479Z,19.70
2022-12-14T17:22:41.766Z,18.10
2022-12-14T17:24:43.714Z,18.50
2022-12-14T17:26:46.934Z,19.93
2022-12-14T17:28:49.472Z,19.30
2022-12-14T17:30:54.377Z,19.77
2022-12-14T17:32:57.421Z,19.50
2022-12-14T17:34:59.330Z,19.20
2022-12-14T17:37:00.952Z,18.87
2022-12-14T17:39:02.572Z,18.60
2022-12-14T17:41:04.517Z,18.63
2022-12-14T17:43:06.827Z,18.37
2022-12-14T17:45:23.568Z,18.27
2022-12-14T17:47:25.435Z,16.73
2022-12-14T17:49:36.284Z,17.87
2022-12-14T17:51:42.014Z,16.90
2022-12-14T17:53:46.856Z,17.20
2022-12-14T17:55:48.535Z,17.17
2022-12-14T17:57:51.144Z,17.70
2022-12-14T18:00:15.204Z,17.10
2022-12-14T18:02:27.531Z,17.23
2022-12-14T18:04:32.521Z,17.67
2022-12-14T18:06:34.320Z,17.33
2022-12-14T18:08:35.963Z,18.43
2022-12-14T18:10:39.015Z,18.87
2022-12-14T18:12:41.569Z,17.60
2022-12-14T18:14:43.326Z,18.20
2022-12-14T18:16:46.105Z,17.67
2022-12-14T18:18:49.367Z,18.37
2022-12-14T18:20:54.326Z,18.83
2022-12-14T18:22:56.353Z,18.30
2022-12-14T18:24:58.122Z,18.60
2022-12-14T18:26:59.918Z,17.67
2022-12-14T18:29:03.091Z,18.00
2022-12-14T18:31:09.200Z,17.50
2022-12-14T18:33:14.559Z,16.43
2022-12-14T18:35:19.693Z,17.00
2022-12-14T18:37:25.262Z,15.67
2022-12-14T18:39:28.763Z,16.37
2022-12-14T18:41:31.424Z,15.57
2022-12-14T18:43:34.338Z,16.10
2022-12-14T18:45:38.375Z,17.63
2022-12-14T18:47:42.179Z,16.83
2022-12-14T18:49:46.838Z,17.53
2022-12-14T18:51:48.587Z,18.03
2022-12-14T18:53:51.200Z,17.30
2022-12-14T18:55:53.171Z,18.10
2022-12-14T18:57:57.673Z,19.63
2022-12-14T18:59:59.860Z,19.47
2022-12-14T19:02:02.320Z,19.53
2022-12-14T19:04:04.366Z,19.80
2022-12-14T19:08:39.667Z,21.53
2022-12-14T19:10:47.829Z,20.30
2022-12-14T19:12:50.410Z,20.03
2022-12-14T19:14:52.410Z,22.17
2022-12-14T19:16:55.609Z,20.93
2022-12-14T19:19:00.692Z,20.37
2022-12-14T19:21:05.731Z,20.77
2022-12-14T19:23:07.416Z,20.87
2022-12-14T19:25:11.473Z,21.17
2022-12-14T19:27:13.194Z,22.87
2022-12-14T19:29:17.644Z,21.77
2022-12-14T19:31:19.307Z,22.10
2022-12-14T19:33:20.992Z,21.77
2022-12-14T19:35:23.676Z,22.27
2022-12-14T19:37:25.398Z,21.97
2022-12-14T19:39:27.174Z,25.83
2022-12-14T19:41:35.024Z,27.87
2022-12-14T19:43:36.692Z,27.63
2022-12-14T19:45:39.599Z,24.73
2022-12-14T19:47:42.706Z,22.47
2022-12-14T19:49:44.236Z,19.80
2022-12-14T19:51:46.155Z,18.83
2022-12-14T19:53:50.115Z,18.80
2022-12-14T19:55:53.266Z,18.43
2022-12-14T19:57:55.057Z,17.60
2022-12-14T19:59:59.944Z,18.23
2022-12-14T20:02:02.211Z,16.87
2022-12-14T20:04:07.262Z,17.50
2022-12-14T20:06:09.387Z,17.90
2022-12-14T20:08:10.999Z,18.83
2022-12-14T20:10:12.747Z,19.67
2022-12-14T20:12:15.757Z,26.87
2022-12-14T20:14:17.797Z,26.63
2022-12-14T20:16:19.931Z,24.57
2022-12-14T20:18:22.665Z,22.83
2022-12-14T20:20:26.648Z,20.97
2022-12-14T20:22:28.488Z,20.70
2022-12-14T20:24:30.282Z,20.00
2022-12-14T20:26:32.012Z,19.67
2022-12-14T20:28:33.800Z,18.97
2022-12-14T20:30:35.496Z,18.13
2022-12-14T20:32:37.171Z,19.70
2022-12-14T20:34:39.214Z,18.13
2022-12-14T20:36:40.733Z,17.67
2022-12-14T20:38:42.314Z,17.50
2022-12-14T20:40:44.241Z,16.83
2022-12-14T20:42:45.889Z,16.43
2022-12-14T20:44:49.365Z,15.47
2022-12-14T20:46:54.038Z,15.40
2022-12-14T20:48:56.889Z,15.47
2022-12-14T20:51:03.089Z,15.13
2022-12-14T20:53:05.780Z,15.33
2022-12-14T20:55:07.701Z,16.40
2022-12-14T20:57:09.400Z,16.70
2022-12-14T20:59:11.817Z,17.13
2022-12-14T21:01:14.797Z,16.90
2022-12-14T21:03:17.198Z,16.30
2022-12-14T21:05:19.014Z,17.03
2022-12-14T21:07:30.941Z,15.80
2022-12-14T21:09:32.817Z,16.80
2022-12-14T21:11:58.126Z,16.53
2022-12-14T21:13:59.778Z,16.07
2022-12-14T21:16:04.229Z,14.83
2022-12-14T21:18:06.830Z,15.47
2022-12-14T21:20:11.598Z,16.00
2022-12-14T21:22:16.295Z,17.00
2022-12-14T21:24:52.705Z,16.30
2022-12-14T21:26:42.047Z,17.17
2022-12-14T21:28:43.940Z,16.40
2022-12-14T21:30:45.670Z,17.07
2022-12-14T21:32:47.272Z,16.93
2022-12-14T21:34:51.276Z,16.13
2022-12-14T21:36:52.840Z,16.97
2022-12-14T21:38:54.785Z,15.40
2022-12-14T21:41:15.272Z,16.20
2022-12-14T21:43:26.053Z,15.50
2022-12-14T21:45:39.300Z,16.27
2022-12-14T21:47:43.308Z,16.73
2022-12-14T21:49:46.059Z,17.57
2022-12-14T21:51:47.752Z,17.73
2022-12-14T21:53:59.977Z,18.77
2022-12-14T21:56:22.143Z,19.83
2022-12-14T21:58:24.672Z,18.30
2022-12-14T22:00:26.423Z,18.83
2022-12-14T22:02:28.554Z,18.27
2022-12-14T22:04:37.829Z,18.87
2022-12-14T22:06:41.233Z,18.20
2022-12-14T22:08:42.829Z,18.13
2022-12-14T22:10:44.541Z,17.83
2022-12-14T22:12:46.020Z,18.77
2022-12-14T22:14:49.147Z,17.63
2022-12-14T22:16:52.096Z,18.40
2022-12-14T22:18:53.852Z,18.40
2022-12-14T22:21:03.662Z,18.03
2022-12-14T22:23:05.307Z,17.27
2022-12-14T22:25:07.275Z,18.83
2022-12-14T22:27:11.079Z,17.13
2022-12-14T22:29:15.222Z,17.63
2022-12-14T22:31:17.105Z,18.17
2022-12-14T22:33:21.691Z,17.53
2022-12-14T22:35:25.944Z,17.40
2022-12-14T22:37:27.385Z,16.47
2022-12-14T22:39:29.141Z,18.63
2022-12-14T22:41:30.920Z,18.20
2022-12-14T22:43:37.741Z,17.67
2022-12-14T22:45:39.711Z,18.77
2022-12-14T22:47:41.194Z,19.57
2022-12-14T22:49:43.283Z,19.47
2022-12-14T22:51:45.611Z,19.53
2022-12-14T22:53:49.505Z,20.40
2022-12-14T22:55:52.226Z,21.20
2022-12-14T22:57:54.593Z,21.23
2022-12-14T23:00:04.879Z,21.83
2022-12-14T23:02:06.802Z,22.50
2022-12-14T23:04:14.146Z,20.30
2022-12-14T23:06:18.967Z,20.67
2022-12-14T23:08:20.808Z,18.83
2022-12-14T23:10:42.382Z,18.13
2022-12-14T23:13:05.364Z,17.90
2022-12-14T23:15:25.994Z,18.03
2022-12-14T23:17:48.006Z,17.60
2022-12-14T23:20:08.032Z,18.23
2022-12-14T23:22:32.423Z,17.47
2022-12-14T23:24:52.573Z,17.87
2022-12-14T23:27:15.840Z,18.27
2022-12-14T23:29:36.202Z,17.37
2022-12-14T23:31:56.345Z,17.70
2022-12-14T23:34:16.621Z,18.30
2022-12-14T23:36:36.555Z,17.77
2022-12-14T23:38:56.838Z,17.00
2022-12-14T23:41:18.860Z,17.77
2022-12-14T23:43:39.056Z,17.97
2022-12-14T23:45:59.536Z,17.37
2022-12-14T23:48:19.633Z,17.93
2022-12-14T23:50:40.133Z,18.13
2022-12-14T23:53:03.696Z,17.40
2022-12-14T23:55:24.626Z,18.15
2022-12-14T23:57:45.069Z,18.10
